Time;durP1;ratioP1;P1;durP2;ratioP2;P2;SDS_P1;SDS_P2;PMS_P1;PMS_P2;Temp;Humidity;BMP_temperature;BMP_pressure;BME280_temperature;BME280_humidity;BME280_pressure;Samples;Min_cycle;Max_cycle;Signal;HPM_P1;HPM_P2
2021/06/14 00:01:42;;;;;;;0.20;0.20;;;16.70;99.90;;;;;;5052510;28;20185;-82
2021/06/14 00:04:08;;;;;;;0.27;0.23;;;16.80;99.90;;;;;;5043247;28;20197;-82
2021/06/14 00:06:33;;;;;;;0.20;0.20;;;16.90;99.90;;;;;;5051570;28;20213;-82
2021/06/14 00:08:59;;;;;;;0.20;0.20;;;16.90;99.90;;;;;;5051648;28;20209;-81
2021/06/14 00:11:25;;;;;;;0.23;0.23;;;16.90;99.90;;;;;;5051638;28;20181;-81
2021/06/14 00:13:51;;;;;;;0.40;0.40;;;17.00;99.90;;;;;;5053329;28;20189;-82
2021/06/14 00:16:18;;;;;;;1.03;1.03;;;17.10;99.90;;;;;;5051506;28;20177;-80
2021/06/14 00:18:44;;;;;;;0.20;0.20;;;17.10;99.90;;;;;;5050427;28;20205;-81
2021/06/14 00:21:13;;;;;;;0.40;0.40;;;17.10;99.90;;;;;;5052951;28;20331;-81
2021/06/14 00:23:39;;;;;;;0.30;0.30;;;17.10;99.90;;;;;;5052546;28;20182;-82
2021/06/14 00:26:09;;;;;;;0.40;0.40;;;17.10;99.90;;;;;;5049969;28;20201;-82
2021/06/14 00:28:36;;;;;;;0.10;0.10;;;17.10;99.90;;;;;;5052356;28;20211;-82
2021/06/14 00:31:01;;;;;;;0.33;0.33;;;17.10;99.90;;;;;;5052839;28;20233;-81
2021/06/14 00:33:27;;;;;;;0.70;0.47;;;16.90;99.90;;;;;;5052052;28;20598;-81
2021/06/14 00:35:53;;;;;;;0.10;0.10;;;16.80;99.90;;;;;;5067628;28;20173;-81
2021/06/14 00:38:19;;;;;;;0.20;0.20;;;16.70;99.90;;;;;;5051326;28;20224;-81
2021/06/14 00:40:45;;;;;;;0.30;0.20;;;16.70;99.90;;;;;;5052597;28;20186;-82
2021/06/14 00:43:12;;;;;;;0.50;0.33;;;16.70;99.90;;;;;;5050027;28;20272;-81
2021/06/14 00:45:46;;;;;;;0.50;0.50;;;16.80;99.90;;;;;;5051423;28;20646;-81
2021/06/14 00:48:13;;;;;;;0.83;0.60;;;16.90;99.90;;;;;;5054871;28;20208;-81
2021/06/14 00:50:50;;;;;;;0.20;0.20;;;17.00;99.90;;;;;;5048738;28;20228;-82
2021/06/14 00:53:26;;;;;;;0.37;0.23;;;17.00;99.90;;;;;;5052277;28;20189;-82
2021/06/14 00:55:52;;;;;;;5.23;0.20;;;17.10;99.90;;;;;;5065155;28;20251;-81
2021/06/14 00:58:18;;;;;;;0.20;0.20;;;17.10;99.90;;;;;;5057463;28;20213;-81
2021/06/14 01:00:45;;;;;;;1.30;0.97;;;17.10;99.90;;;;;;5051684;28;20189;-81
2021/06/14 01:03:11;;;;;;;0.23;0.20;;;17.00;99.90;;;;;;5042919;28;20196;-82
2021/06/14 01:05:40;;;;;;;0.40;0.40;;;17.00;99.90;;;;;;5054520;28;20216;-82
2021/06/14 01:08:10;;;;;;;0.30;0.30;;;17.10;99.90;;;;;;5055987;28;20225;-82
2021/06/14 01:10:37;;;;;;;0.20;0.20;;;17.00;99.90;;;;;;5055678;28;20194;-85
2021/06/14 01:13:30;;;;;;;0.37;0.37;;;17.00;99.90;;;;;;5054612;28;20190;-85
2021/06/14 01:16:16;;;;;;;0.10;0.10;;;17.00;99.90;;;;;;5050585;28;20189;-82
2021/06/14 01:19:02;;;;;;;0.20;0.20;;;16.90;99.90;;;;;;5046459;28;20240;-81
2021/06/14 01:21:49;;;;;;;0.20;0.20;;;16.90;99.90;;;;;;5041868;28;20225;-82
2021/06/14 01:24:37;;;;;;;0.70;0.70;;;16.80;99.90;;;;;;5038721;28;20194;-82
2021/06/14 01:27:24;;;;;;;0.30;0.30;;;16.80;99.90;;;;;;5042687;28;20694;-82
2021/06/14 01:29:50;;;;;;;0.30;0.30;;;16.70;99.90;;;;;;5038820;28;20294;-82
2021/06/14 01:32:16;;;;;;;0.20;0.20;;;16.70;99.90;;;;;;5054806;28;20268;-82
2021/06/14 01:34:43;;;;;;;0.37;0.37;;;16.60;99.90;;;;;;5051824;28;20185;-82
2021/06/14 01:37:10;;;;;;;0.33;0.33;;;16.60;99.90;;;;;;5053643;28;20224;-83
2021/06/14 01:39:38;;;;;;;0.37;0.37;;;16.60;99.90;;;;;;5055714;28;20233;-83
2021/06/14 01:42:06;;;;;;;0.93;0.30;;;16.60;99.90;;;;;;5050282;28;20178;-81
2021/06/14 01:44:32;;;;;;;0.33;0.33;;;16.50;99.90;;;;;;5054058;28;20222;-82
2021/06/14 01:47:01;;;;;;;0.50;0.23;;;16.50;99.90;;;;;;5055029;28;20206;-82
2021/06/14 01:49:27;;;;;;;0.20;0.20;;;16.50;99.90;;;;;;5054893;28;20198;-82
2021/06/14 01:51:53;;;;;;;0.37;0.37;;;16.50;99.90;;;;;;5051217;28;20193;-80
2021/06/14 01:54:19;;;;;;;0.17;0.17;;;16.40;99.90;;;;;;5053348;28;20235;-81
2021/06/14 01:56:51;;;;;;;0.20;0.20;;;16.40;99.90;;;;;;5054278;28;20220;-82
2021/06/14 01:59:38;;;;;;;0.20;0.20;;;16.40;99.90;;;;;;5054530;28;20205;-82
2021/06/14 02:02:06;;;;;;;0.20;0.20;;;16.40;99.90;;;;;;5048759;28;20181;-81
2021/06/14 02:04:37;;;;;;;0.20;0.20;;;16.40;99.90;;;;;;5052976;28;20190;-82
2021/06/14 02:07:03;;;;;;;0.53;0.50;;;16.30;99.90;;;;;;5054547;28;20208;-82
2021/06/14 02:09:30;;;;;;;1.70;0.50;;;16.30;99.90;;;;;;5052890;28;20617;-82
2021/06/14 02:11:59;;;;;;;0.33;0.33;;;16.30;99.90;;;;;;5054526;28;20532;-82
2021/06/14 02:14:31;;;;;;;0.30;0.30;;;16.30;99.90;;;;;;5054308;28;20296;-83
2021/06/14 02:17:00;;;;;;;0.60;0.47;;;16.00;99.90;;;;;;5052777;28;20186;-82
2021/06/14 02:19:26;;;;;;;0.70;0.50;;;15.60;99.90;;;;;;5054148;28;20212;-82
2021/06/14 02:21:52;;;;;;;0.30;0.30;;;15.30;99.90;;;;;;5068549;28;20264;-82
2021/06/14 02:24:17;;;;;;;2.63;0.30;;;15.00;99.90;;;;;;5054026;28;20200;-82
2021/06/14 02:26:44;;;;;;;0.30;0.30;;;15.00;99.90;;;;;;5054041;28;20597;-82
2021/06/14 02:29:10;;;;;;;0.30;0.30;;;14.80;99.90;;;;;;5051359;28;20292;-81
2021/06/14 02:31:37;;;;;;;0.47;0.23;;;14.80;99.90;;;;;;5051351;28;20227;-82
2021/06/14 02:34:07;;;;;;;0.50;0.33;;;14.80;99.90;;;;;;5051071;28;20247;-82
2021/06/14 02:36:35;;;;;;;0.23;0.20;;;14.70;99.90;;;;;;5052509;28;20532;-83
2021/06/14 02:39:11;;;;;;;0.57;0.33;;;14.60;99.90;;;;;;5052129;28;20209;-82
2021/06/14 02:41:37;;;;;;;0.23;0.23;;;14.60;99.90;;;;;;5052703;28;20185;-80
2021/06/14 02:44:07;;;;;;;6.30;0.40;;;14.70;99.90;;;;;;5053452;28;20187;-82
2021/06/14 02:46:41;;;;;;;0.20;0.20;;;14.80;99.90;;;;;;5069073;28;20189;-82
2021/06/14 02:49:09;;;;;;;0.50;0.50;;;15.00;99.90;;;;;;5056553;28;20203;-82
2021/06/14 02:51:36;;;;;;;0.47;0.47;;;15.00;99.90;;;;;;5053093;28;20193;-82
2021/06/14 02:54:05;;;;;;;0.10;0.10;;;15.10;99.90;;;;;;5053589;28;20198;-82
2021/06/14 02:56:36;;;;;;;0.20;0.20;;;15.30;99.90;;;;;;5068251;28;20567;-80
2021/06/14 02:59:05;;;;;;;0.30;0.30;;;15.40;99.90;;;;;;5042135;28;20220;-82
2021/06/14 03:01:33;;;;;;;0.43;0.43;;;15.30;99.90;;;;;;5053362;28;20654;-82
2021/06/14 03:04:04;;;;;;;0.90;0.57;;;15.20;99.90;;;;;;5044328;28;20188;-82
2021/06/14 03:06:31;;;;;;;0.40;0.40;;;15.10;99.90;;;;;;5052962;28;20185;-82
2021/06/14 03:08:57;;;;;;;0.20;0.20;;;15.00;99.90;;;;;;5052950;28;20288;-82
2021/06/14 03:11:26;;;;;;;0.20;0.20;;;14.90;99.90;;;;;;5051483;28;20177;-82
2021/06/14 03:13:53;;;;;;;0.20;0.20;;;15.00;99.90;;;;;;5051705;28;20188;-82
2021/06/14 03:16:23;;;;;;;0.40;0.40;;;15.10;99.90;;;;;;5051391;28;20185;-82
2021/06/14 03:18:49;;;;;;;0.10;0.10;;;15.00;99.90;;;;;;5053219;28;20232;-81
2021/06/14 03:21:15;;;;;;;0.30;0.30;;;15.10;99.90;;;;;;5050657;28;20181;-82
2021/06/14 03:23:41;;;;;;;0.67;0.67;;;15.10;99.90;;;;;;5051195;28;20186;-82
2021/06/14 03:26:12;;;;;;;0.10;0.10;;;15.00;99.90;;;;;;5051749;28;20272;-82
2021/06/14 03:28:42;;;;;;;1.80;0.50;;;15.10;99.90;;;;;;5052271;28;20220;-81
2021/06/14 03:31:09;;;;;;;0.30;0.30;;;15.10;99.90;;;;;;5052825;28;20683;-81
2021/06/14 03:33:35;;;;;;;0.17;0.17;;;15.20;99.90;;;;;;5051208;28;20620;-82
2021/06/14 03:36:02;;;;;;;0.10;0.10;;;15.20;99.90;;;;;;5060424;28;20204;-82
2021/06/14 03:38:28;;;;;;;0.83;0.43;;;15.80;99.90;;;;;;5059884;28;20209;-82
2021/06/14 03:40:53;;;;;;;0.10;0.10;;;16.60;99.90;;;;;;5062144;28;20183;-82
2021/06/14 03:43:19;;;;;;;0.10;0.10;;;17.30;99.90;;;;;;5058071;28;20220;-82
2021/06/14 03:45:45;;;;;;;0.30;0.30;;;18.00;99.90;;;;;;5060615;28;20192;-82
2021/06/14 03:48:11;;;;;;;0.43;0.43;;;18.50;99.90;;;;;;5044322;28;20227;-82
2021/06/14 03:50:36;;;;;;;0.87;0.73;;;18.60;99.90;;;;;;5053697;28;20189;-81
2021/06/14 03:53:03;;;;;;;0.43;0.43;;;18.90;99.90;;;;;;5054340;28;20192;-83
2021/06/14 03:55:29;;;;;;;0.33;0.33;;;19.30;99.90;;;;;;5052988;28;20222;-81
2021/06/14 03:57:55;;;;;;;0.50;0.50;;;19.60;99.90;;;;;;5052988;28;20584;-81
2021/06/14 04:00:21;;;;;;;0.33;0.33;;;19.80;99.90;;;;;;5053925;28;20189;-82
2021/06/14 04:02:47;;;;;;;0.10;0.10;;;19.70;99.90;;;;;;5049846;28;20179;-82
2021/06/14 04:05:13;;;;;;;0.20;0.20;;;20.30;99.90;;;;;;5069738;28;20193;-81
2021/06/14 04:07:39;;;;;;;0.20;0.20;;;20.80;99.90;;;;;;5054148;28;20272;-81
2021/06/14 04:10:06;;;;;;;0.33;0.33;;;21.10;99.90;;;;;;5050963;28;20186;-82
2021/06/14 04:12:32;;;;;;;0.87;0.70;;;21.20;99.90;;;;;;5053884;28;20185;-82
2021/06/14 04:14:58;;;;;;;0.70;0.40;;;21.50;99.90;;;;;;5070375;28;20186;-82
2021/06/14 04:17:24;;;;;;;0.20;0.20;;;21.10;99.90;;;;;;5053818;28;20184;-82
2021/06/14 04:19:50;;;;;;;0.53;0.30;;;20.90;99.90;;;;;;5054887;28;20196;-82
2021/06/14 04:22:16;;;;;;;0.30;0.30;;;20.70;99.90;;;;;;5055014;28;20258;-82
2021/06/14 04:24:42;;;;;;;0.57;0.57;;;20.80;99.90;;;;;;5054059;28;20200;-82
2021/06/14 04:27:08;;;;;;;0.43;0.43;;;20.30;99.90;;;;;;5052377;28;20232;-81
2021/06/14 04:29:35;;;;;;;0.10;0.10;;;19.60;99.90;;;;;;5052317;28;20220;-82
2021/06/14 04:32:01;;;;;;;0.27;0.27;;;19.20;99.90;;;;;;5053282;28;20189;-82
2021/06/14 04:34:27;;;;;;;0.50;0.50;;;18.70;99.90;;;;;;5051956;28;20174;-82
2021/06/14 04:36:53;;;;;;;0.63;0.63;;;18.50;99.90;;;;;;5051962;28;20190;-82
2021/06/14 04:39:18;;;;;;;0.10;0.10;;;18.50;99.90;;;;;;5056732;28;20224;-82
2021/06/14 04:41:44;;;;;;;0.53;0.53;;;18.20;99.90;;;;;;5057558;28;20216;-82
2021/06/14 04:44:09;;;;;;;0.43;0.43;;;18.10;99.90;;;;;;5063071;28;20204;-84
2021/06/14 04:46:35;;;;;;;0.20;0.20;;;18.00;99.90;;;;;;5053876;28;20657;-84
2021/06/14 04:49:01;;;;;;;0.53;0.30;;;18.00;99.90;;;;;;5054787;28;20257;-85
2021/06/14 04:51:27;;;;;;;0.30;0.30;;;17.90;99.90;;;;;;5053327;28;20555;-85
2021/06/14 04:53:53;;;;;;;0.50;0.50;;;17.80;99.90;;;;;;5055277;28;20185;-82
2021/06/14 04:56:19;;;;;;;0.30;0.30;;;18.00;99.90;;;;;;5058363;28;20281;-82
2021/06/14 04:58:44;;;;;;;0.33;0.33;;;18.00;99.90;;;;;;5059127;28;20320;-81
2021/06/14 05:01:10;;;;;;;0.70;0.40;;;17.90;99.90;;;;;;5059399;28;20677;-81
2021/06/14 05:03:36;;;;;;;0.20;0.20;;;17.90;99.90;;;;;;5051909;28;20216;-82
2021/06/14 05:06:01;;;;;;;0.30;0.30;;;17.80;99.90;;;;;;5057629;28;20180;-85
2021/06/14 05:08:27;;;;;;;1.10;0.97;;;17.80;99.90;;;;;;5052666;28;20984;-85
2021/06/14 05:10:53;;;;;;;0.30;0.30;;;17.90;99.90;;;;;;5053124;28;20216;-84
2021/06/14 05:13:19;;;;;;;0.50;0.40;;;17.90;99.90;;;;;;5055106;28;20217;-84
2021/06/14 05:15:44;;;;;;;0.50;0.50;;;17.80;99.90;;;;;;5052378;28;20256;-80
2021/06/14 05:18:11;;;;;;;0.30;0.30;;;17.80;99.90;;;;;;5058937;28;20211;-81
2021/06/14 05:20:36;;;;;;;0.10;0.10;;;17.80;99.90;;;;;;5053909;28;20750;-80
2021/06/14 05:23:03;;;;;;;0.33;0.33;;;18.10;99.90;;;;;;5058789;28;20246;-85
2021/06/14 05:25:31;;;;;;;1.13;0.40;;;18.00;99.90;;;;;;5067508;28;20193;-81
2021/06/14 05:27:56;;;;;;;0.43;0.37;;;17.90;99.90;;;;;;5044816;28;20258;-82
2021/06/14 05:30:22;;;;;;;0.20;0.20;;;17.90;99.90;;;;;;5049301;28;20195;-81
2021/06/14 05:32:48;;;;;;;3.63;0.63;;;17.90;99.90;;;;;;5046617;28;20186;-80
2021/06/14 05:35:13;;;;;;;0.30;0.20;;;17.70;99.90;;;;;;5051152;28;21085;-82
2021/06/14 05:37:39;;;;;;;0.40;0.40;;;17.80;99.90;;;;;;5050489;28;20248;-82
2021/06/14 05:40:07;;;;;;;0.40;0.30;;;17.90;99.90;;;;;;5069723;28;20216;-81
2021/06/14 05:42:34;;;;;;;0.77;0.50;;;17.80;99.90;;;;;;5055826;28;20237;-82
2021/06/14 05:45:00;;;;;;;0.20;0.20;;;17.80;99.90;;;;;;5056753;28;20195;-82
2021/06/14 05:47:26;;;;;;;0.90;0.23;;;17.90;99.90;;;;;;5053856;28;20190;-82
2021/06/14 05:49:51;;;;;;;0.20;0.20;;;18.20;99.90;;;;;;5052256;28;20545;-82
2021/06/14 05:52:17;;;;;;;1.60;0.80;;;18.30;99.90;;;;;;5054188;28;20288;-82
2021/06/14 05:54:43;;;;;;;0.40;0.40;;;18.30;99.90;;;;;;5054017;28;20265;-82
2021/06/14 05:57:09;;;;;;;0.30;0.30;;;18.20;99.90;;;;;;5050082;28;20695;-82
2021/06/14 05:59:34;;;;;;;0.30;0.30;;;18.20;99.90;;;;;;5047680;28;20295;-81
2021/06/14 06:02:02;;;;;;;0.10;0.10;;;18.50;99.90;;;;;;5053276;28;20182;-81
2021/06/14 06:04:28;;;;;;;1.23;0.70;;;18.60;99.90;;;;;;5052043;28;20553;-81
2021/06/14 06:06:53;;;;;;;0.77;0.53;;;18.50;99.90;;;;;;5051056;28;20202;-81
2021/06/14 06:09:19;;;;;;;0.50;0.33;;;18.40;99.90;;;;;;5052091;28;20197;-81
2021/06/14 06:11:44;;;;;;;2.57;0.73;;;18.60;99.90;;;;;;5053541;28;20235;-82
2021/06/14 06:14:10;;;;;;;0.47;0.47;;;18.70;99.90;;;;;;5054109;28;20279;-82
2021/06/14 06:16:36;;;;;;;0.47;0.47;;;18.60;99.90;;;;;;5051441;28;20182;-82
2021/06/14 06:19:02;;;;;;;0.30;0.30;;;18.60;99.90;;;;;;5053522;28;20202;-82
2021/06/14 06:21:27;;;;;;;0.30;0.30;;;18.70;99.90;;;;;;5052882;28;20212;-81
2021/06/14 06:23:53;;;;;;;0.77;0.40;;;18.90;99.90;;;;;;5051301;28;20227;-82
2021/06/14 06:26:18;;;;;;;0.30;0.30;;;19.30;99.90;;;;;;5052645;28;20185;-81
2021/06/14 06:28:44;;;;;;;0.43;0.37;;;19.10;99.90;;;;;;5053789;28;20220;-81
2021/06/14 06:31:09;;;;;;;0.33;0.33;;;19.20;99.90;;;;;;5052373;28;20285;-82
2021/06/14 06:33:35;;;;;;;0.30;0.30;;;19.10;99.90;;;;;;5049861;28;20213;-82
2021/06/14 06:36:01;;;;;;;0.40;0.40;;;19.30;99.90;;;;;;5046923;28;20222;-81
2021/06/14 06:38:27;;;;;;;0.40;0.40;;;19.40;99.90;;;;;;5043617;28;20646;-81
2021/06/14 06:40:52;;;;;;;0.40;0.40;;;19.10;99.90;;;;;;5052626;28;20193;-80
2021/06/14 06:43:18;;;;;;;0.37;0.37;;;19.50;99.90;;;;;;5050102;28;20297;-82
2021/06/14 06:45:45;;;;;;;0.47;0.20;;;19.80;99.90;;;;;;5052458;28;20657;-81
2021/06/14 06:48:10;;;;;;;0.10;0.10;;;19.90;99.90;;;;;;5069980;28;20753;-82
2021/06/14 06:50:36;;;;;;;0.40;0.40;;;19.90;99.90;;;;;;5064329;28;20177;-83
2021/06/14 06:53:03;;;;;;;0.53;0.30;;;20.10;99.90;;;;;;5052824;28;20564;-83
2021/06/14 06:55:28;;;;;;;0.93;0.30;;;20.10;99.90;;;;;;5051870;28;20182;-81
2021/06/14 06:57:54;;;;;;;0.40;0.40;;;20.20;99.90;;;;;;5055400;28;20224;-83
2021/06/14 07:00:21;;;;;;;0.40;0.30;;;20.40;99.90;;;;;;5052976;28;20189;-85
2021/06/14 07:02:47;;;;;;;3.00;0.63;;;20.50;99.90;;;;;;5050154;28;20182;-87
2021/06/14 07:05:13;;;;;;;0.50;0.50;;;20.70;99.90;;;;;;5044192;28;20190;-82
2021/06/14 07:07:38;;;;;;;0.43;0.40;;;20.80;99.90;;;;;;5050238;28;20252;-84
2021/06/14 07:10:06;;;;;;;0.50;0.50;;;20.50;99.90;;;;;;5057643;28;20199;-83
2021/06/14 07:12:33;;;;;;;0.30;0.30;;;20.40;99.90;;;;;;5050474;28;20181;-83
2021/06/14 07:14:59;;;;;;;0.63;0.60;;;20.00;99.90;;;;;;5047796;28;20254;-83
2021/06/14 07:17:25;;;;;;;0.57;0.57;;;20.30;99.90;;;;;;5067434;28;20677;-82
2021/06/14 07:19:51;;;;;;;0.33;0.33;;;20.50;99.90;;;;;;5054897;28;20216;-83
2021/06/14 07:22:16;;;;;;;0.80;0.80;;;20.70;99.90;;;;;;5055676;28;20654;-84
2021/06/14 07:24:47;;;;;;;0.30;0.30;;;20.90;99.90;;;;;;5131320;27;20296;-82
2021/06/14 07:27:13;;;;;;;0.50;0.50;;;20.60;99.90;;;;;;5116233;27;20179;-84
2021/06/14 07:29:39;;;;;;;0.53;0.53;;;20.90;99.90;;;;;;5121314;28;20204;-83
2021/06/14 07:32:05;;;;;;;0.50;0.50;;;21.00;99.90;;;;;;5118277;28;20202;-83
2021/06/14 07:34:31;;;;;;;0.90;0.60;;;21.00;99.90;;;;;;5108735;28;20199;-83
2021/06/14 07:36:57;;;;;;;0.70;0.70;;;21.10;99.90;;;;;;5108214;28;20183;-84
2021/06/14 07:39:24;;;;;;;0.40;0.40;;;20.80;99.90;;;;;;5108612;28;20236;-83
2021/06/14 07:41:49;;;;;;;0.33;0.33;;;21.30;99.90;;;;;;5108916;28;20179;-84
2021/06/14 07:44:15;;;;;;;1.60;0.53;;;21.40;99.90;;;;;;5111154;28;20625;-84
2021/06/14 07:46:41;;;;;;;0.30;0.30;;;21.70;99.90;;;;;;5124679;27;20272;-83
2021/06/14 07:49:07;;;;;;;0.20;0.20;;;21.50;99.90;;;;;;5111680;28;20223;-83
2021/06/14 07:51:32;;;;;;;0.30;0.30;;;21.40;99.90;;;;;;5110515;28;20207;-84
2021/06/14 07:53:58;;;;;;;0.77;0.77;;;21.40;99.90;;;;;;5115860;28;20194;-82
2021/06/14 07:56:24;;;;;;;1.60;1.17;;;21.40;99.90;;;;;;5112977;28;20199;-83
2021/06/14 07:58:50;;;;;;;0.80;0.80;;;21.40;99.90;;;;;;5130057;27;20231;-84
2021/06/14 08:01:16;;;;;;;0.50;0.50;;;21.60;99.90;;;;;;5109967;28;20195;-83
2021/06/14 08:03:42;;;;;;;0.40;0.40;;;21.40;99.90;;;;;;5121469;28;20245;-84
2021/06/14 08:06:08;;;;;;;0.40;0.40;;;21.40;99.90;;;;;;5124975;27;20557;-84
2021/06/14 08:08:34;;;;;;;0.43;0.43;;;21.80;99.90;;;;;;5107386;28;20582;-83
2021/06/14 08:11:01;;;;;;;0.50;0.50;;;22.00;99.90;;;;;;5107448;28;20184;-84
2021/06/14 08:13:27;;;;;;;0.30;0.30;;;22.20;99.90;;;;;;5110767;28;20541;-83
2021/06/14 08:15:53;;;;;;;0.50;0.40;;;22.40;99.90;;;;;;5126669;27;20583;-83
2021/06/14 08:26:08;;;;;;;0.87;0.60;;;22.00;99.90;;;;;;5111102;28;20304;-84
2021/06/14 08:28:33;;;;;;;0.70;0.70;;;21.70;99.90;;;;;;5127244;27;20738;-83
2021/06/14 08:30:59;;;;;;;0.43;0.43;;;22.10;99.90;;;;;;5125437;27;20176;-82
2021/06/14 08:33:25;;;;;;;0.50;0.50;;;22.20;99.90;;;;;;5109027;28;20647;-84
2021/06/14 08:35:50;;;;;;;0.43;0.43;;;22.50;99.90;;;;;;5103166;28;20183;-83
2021/06/14 08:38:16;;;;;;;0.53;0.50;;;22.60;99.90;;;;;;5097587;28;20204;-83
2021/06/14 08:40:41;;;;;;;0.40;0.40;;;23.00;99.90;;;;;;5112713;28;20196;-83
2021/06/14 08:43:08;;;;;;;0.40;0.40;;;23.10;99.90;;;;;;5100321;28;20207;-84
2021/06/14 08:45:37;;;;;;;0.37;0.20;;;22.90;99.90;;;;;;5094304;28;20177;-83
2021/06/14 08:48:05;;;;;;;0.23;0.23;;;22.70;99.90;;;;;;5096827;28;20207;-83
2021/06/14 08:50:31;;;;;;;0.43;0.43;;;22.90;99.90;;;;;;5096341;28;20648;-83
2021/06/14 08:52:57;;;;;;;0.80;0.80;;;23.40;99.90;;;;;;5102472;28;20190;-84
2021/06/14 08:55:23;;;;;;;0.83;0.60;;;23.30;99.90;;;;;;5106279;28;20180;-84
2021/06/14 08:57:50;;;;;;;1.57;0.37;;;23.70;99.90;;;;;;5093795;28;20216;-83
2021/06/14 09:00:21;;;;;;;0.50;0.50;;;23.90;99.90;;;;;;5092587;28;20227;-84
2021/06/14 09:02:48;;;;;;;1.23;1.13;;;24.30;99.90;;;;;;5097014;28;20207;-83
2021/06/14 09:05:16;;;;;;;0.40;0.37;;;24.20;99.90;;;;;;5100174;28;20180;-82
2021/06/14 09:07:43;;;;;;;4.80;0.90;;;24.30;99.90;;;;;;5108155;27;20207;-81
2021/06/14 09:10:20;;;;;;;0.73;0.53;;;23.80;99.90;;;;;;5096346;28;20271;-82
2021/06/14 09:12:46;;;;;;;0.53;0.53;;;23.30;99.90;;;;;;5093361;28;20195;-83
2021/06/14 09:15:12;;;;;;;0.40;0.40;;;22.60;99.90;;;;;;5101839;28;20183;-84
2021/06/14 09:17:39;;;;;;;0.40;0.40;;;23.00;99.90;;;;;;5100080;28;20299;-85
2021/06/14 09:20:15;;;;;;;0.70;0.53;;;23.70;99.90;;;;;;5113859;28;20183;-85
2021/06/14 09:22:41;;;;;;;0.90;0.90;;;24.00;99.90;;;;;;5098325;28;20342;-85
2021/06/14 09:25:09;;;;;;;0.50;0.50;;;23.60;99.90;;;;;;5106990;28;20263;-85
2021/06/14 09:27:42;;;;;;;0.40;0.40;;;24.00;99.90;;;;;;5099959;28;20186;-85
2021/06/14 09:30:14;;;;;;;0.73;0.50;;;24.50;99.90;;;;;;5095572;28;20184;-85
2021/06/14 09:32:57;;;;;;;0.83;0.30;;;24.80;99.90;;;;;;5099341;28;20217;-85
2021/06/14 09:35:26;;;;;;;0.23;0.23;;;25.10;99.90;;;;;;5108838;28;20188;-84
2021/06/14 09:38:11;;;;;;;0.50;0.40;;;25.20;99.90;;;;;;5093847;28;20208;-84
2021/06/14 09:40:45;;;;;;;0.27;0.27;;;25.20;99.90;;;;;;5110747;28;20266;-84
2021/06/14 09:43:30;;;;;;;1.03;0.80;;;25.50;99.90;;;;;;5110384;27;20219;-84
2021/06/14 09:45:58;;;;;;;0.40;0.40;;;25.50;99.90;;;;;;5091726;28;20275;-85
2021/06/14 09:48:29;;;;;;;0.50;0.50;;;25.80;99.90;;;;;;5097051;28;20204;-85
2021/06/14 09:50:57;;;;;;;0.87;0.50;;;25.90;99.90;;;;;;5093582;28;20188;-84
2021/06/14 09:53:34;;;;;;;1.13;0.90;;;25.20;99.90;;;;;;5095030;28;20191;-85
2021/06/14 09:56:14;;;;;;;0.53;0.53;;;25.00;99.90;;;;;;5100801;28;20188;-85
2021/06/14 09:58:42;;;;;;;0.40;0.40;;;24.70;99.90;;;;;;5103194;28;20233;-83
2021/06/14 10:01:08;;;;;;;0.73;0.73;;;24.80;99.90;;;;;;5098114;28;20263;-83
2021/06/14 10:03:45;;;;;;;0.57;0.57;;;24.50;99.90;;;;;;5094832;28;20350;-83
2021/06/14 10:06:11;;;;;;;0.50;0.50;;;24.70;99.90;;;;;;5092455;28;20184;-84
2021/06/14 10:08:38;;;;;;;0.90;0.40;;;24.30;99.90;;;;;;5096468;28;20282;-85
2021/06/14 10:11:06;;;;;;;0.90;0.90;;;24.40;99.90;;;;;;5106782;28;20279;-85
2021/06/14 10:13:33;;;;;;;0.47;0.47;;;24.50;99.90;;;;;;5114488;28;20250;-85
2021/06/14 10:16:04;;;;;;;0.37;0.37;;;24.70;99.90;;;;;;5110087;28;20293;-85
2021/06/14 10:18:36;;;;;;;0.67;0.50;;;25.20;99.90;;;;;;5113656;28;20203;-84
2021/06/14 10:21:04;;;;;;;0.90;0.90;;;24.90;99.90;;;;;;5111606;28;20188;-85
2021/06/14 10:23:30;;;;;;;0.30;0.30;;;24.60;99.90;;;;;;5096952;28;20622;-85
2021/06/14 10:25:58;;;;;;;0.87;0.80;;;25.00;99.90;;;;;;5101963;28;20180;-85
2021/06/14 10:28:24;;;;;;;1.00;1.00;;;24.40;99.90;;;;;;5098487;28;20577;-85
2021/06/14 10:30:52;;;;;;;0.53;0.53;;;24.70;99.90;;;;;;5110525;28;20232;-84
2021/06/14 10:33:24;;;;;;;0.20;0.20;;;25.10;99.90;;;;;;5100356;28;20188;-85
2021/06/14 10:35:52;;;;;;;0.33;0.33;;;25.50;99.90;;;;;;5102807;28;20184;-83
2021/06/14 10:38:19;;;;;;;4.03;1.87;;;25.60;99.90;;;;;;5104798;28;20206;-85
2021/06/14 10:40:46;;;;;;;1.80;0.70;;;25.20;99.90;;;;;;5111205;28;20275;-86
2021/06/14 10:43:12;;;;;;;0.50;0.50;;;25.50;99.90;;;;;;5107412;28;20219;-85
2021/06/14 10:45:37;;;;;;;0.53;0.53;;;25.20;99.90;;;;;;5101350;28;20184;-84
2021/06/14 10:48:05;;;;;;;0.30;0.30;;;25.20;99.90;;;;;;5101054;28;20585;-86
2021/06/14 10:50:34;;;;;;;1.70;0.77;;;25.70;99.90;;;;;;5105217;28;20266;-85
2021/06/14 10:52:59;;;;;;;0.77;0.47;;;26.20;99.90;;;;;;5100286;28;20241;-86
2021/06/14 10:55:30;;;;;;;0.40;0.40;;;26.60;99.90;;;;;;5105240;27;20593;-85
2021/06/14 10:57:57;;;;;;;0.30;0.30;;;26.80;99.90;;;;;;5102137;28;20208;-85
2021/06/14 11:00:27;;;;;;;1.07;0.50;;;26.60;99.90;;;;;;5100420;28;20212;-84
2021/06/14 11:02:56;;;;;;;0.60;0.60;;;26.40;99.90;;;;;;5097168;28;20231;-85
2021/06/14 11:05:28;;;;;;;0.40;0.40;;;26.80;99.90;;;;;;5105815;27;20552;-85
2021/06/14 11:07:54;;;;;;;0.30;0.30;;;27.00;99.90;;;;;;5102519;28;20199;-85
2021/06/14 11:10:28;;;;;;;0.23;0.23;;;27.20;99.90;;;;;;5114942;27;20671;-84
2021/06/14 11:13:09;;;;;;;0.22;0.22;;;27.40;99.90;;;;;;5105576;28;20323;-85
2021/06/14 11:15:36;;;;;;;0.33;0.33;;;27.40;99.90;;;;;;5101231;28;20550;-85
2021/06/14 11:18:06;;;;;;;0.40;0.40;;;27.40;99.90;;;;;;5100278;28;20207;-85
2021/06/14 11:20:38;;;;;;;0.40;0.40;;;27.50;99.90;;;;;;5099729;28;20188;-85
2021/06/14 11:23:18;;;;;;;0.33;0.33;;;27.60;99.90;;;;;;5104370;28;20204;-85
2021/06/14 11:25:44;;;;;;;0.63;0.60;;;27.80;99.90;;;;;;5120746;27;20656;-85
2021/06/14 11:28:10;;;;;;;0.50;0.50;;;27.30;99.90;;;;;;5101511;28;20206;-85
2021/06/14 11:30:41;;;;;;;0.90;0.57;;;27.30;99.90;;;;;;5099415;28;20203;-85
2021/06/14 11:33:09;;;;;;;0.50;0.50;;;26.80;99.90;;;;;;5102684;28;20281;-85
2021/06/14 11:35:36;;;;;;;1.00;1.00;;;26.40;99.90;;;;;;5099759;28;20188;-84
2021/06/14 11:38:04;;;;;;;0.50;0.50;;;26.80;99.90;;;;;;5098190;28;20211;-84
2021/06/14 11:40:35;;;;;;;0.20;0.20;;;26.80;99.90;;;;;;5100236;28;20361;-84
2021/06/14 11:43:12;;;;;;;0.60;0.60;;;27.10;99.90;;;;;;5098457;28;20208;-85
2021/06/14 11:45:42;;;;;;;1.92;0.60;;;26.80;99.90;;;;;;5108076;28;20218;-84
2021/06/14 11:48:22;;;;;;;0.43;0.43;;;27.40;99.90;;;;;;5110028;28;20248;-85
2021/06/14 11:50:48;;;;;;;2.60;0.60;;;27.70;99.90;;;;;;5097990;28;20191;-85
2021/06/14 11:53:14;;;;;;;0.45;0.40;;;27.70;99.90;;;;;;5100996;28;20188;-86
2021/06/14 11:55:43;;;;;;;0.20;0.20;;;27.80;99.90;;;;;;5097962;28;20207;-85
2021/06/14 11:58:10;;;;;;;0.25;0.25;;;28.00;99.90;;;;;;5106947;28;20215;-83
2021/06/14 12:00:39;;;;;;;0.30;0.30;;;28.10;99.90;;;;;;5095755;28;20271;-83
2021/06/14 12:03:22;;;;;;;0.50;0.50;;;28.30;99.90;;;;;;5095180;28;20219;-85
2021/06/14 12:05:49;;;;;;;1.67;0.70;;;28.00;99.90;;;;;;5109806;28;20184;-84
2021/06/14 12:08:23;;;;;;;0.43;0.30;;;27.10;99.90;;;;;;5089617;28;20579;-84
2021/06/14 12:10:52;;;;;;;0.40;0.40;;;27.20;99.90;;;;;;5106619;28;20607;-84
2021/06/14 12:13:19;;;;;;;0.43;0.43;;;27.80;99.90;;;;;;5094650;28;20619;-85
2021/06/14 12:15:47;;;;;;;0.60;0.40;;;28.00;99.90;;;;;;5112978;28;20179;-84
2021/06/14 12:18:14;;;;;;;0.80;0.30;;;28.20;99.90;;;;;;5109650;27;20203;-84
2021/06/14 12:20:43;;;;;;;0.57;0.52;;;28.40;99.90;;;;;;5109000;28;20183;-85
2021/06/14 12:23:12;;;;;;;0.30;0.30;;;28.30;99.90;;;;;;5102698;28;20228;-85
2021/06/14 12:25:39;;;;;;;0.38;0.38;;;28.30;99.90;;;;;;5094041;28;20180;-85
2021/06/14 12:28:07;;;;;;;0.40;0.40;;;28.10;99.90;;;;;;5103624;28;20220;-85
2021/06/14 12:30:33;;;;;;;0.38;0.38;;;28.30;99.90;;;;;;5111728;27;20550;-84
2021/06/14 12:33:00;;;;;;;0.40;0.40;;;28.10;99.90;;;;;;5100688;28;20202;-85
2021/06/14 12:35:27;;;;;;;0.35;0.30;;;28.00;99.90;;;;;;5095000;28;20263;-84
2021/06/14 12:37:53;;;;;;;0.68;0.52;;;28.40;99.90;;;;;;5097861;28;20517;-85
2021/06/14 12:40:20;;;;;;;0.40;0.40;;;28.50;99.90;;;;;;5118470;27;20194;-85
2021/06/14 12:43:01;;;;;;;0.50;0.50;;;28.40;99.90;;;;;;5102131;28;20672;-85
2021/06/14 12:45:28;;;;;;;0.70;0.70;;;28.00;99.90;;;;;;5103457;28;20188;-85
2021/06/14 12:47:56;;;;;;;0.50;0.50;;;27.20;99.90;;;;;;5111173;28;20207;-84
2021/06/14 12:50:32;;;;;;;1.63;0.50;;;26.70;99.90;;;;;;5104556;28;20194;-85
2021/06/14 12:53:00;;;;;;;1.02;0.40;;;27.10;99.90;;;;;;5103977;28;20192;-84
2021/06/14 12:55:27;;;;;;;0.98;0.43;;;27.70;99.90;;;;;;5129225;27;20712;-84
2021/06/14 12:57:54;;;;;;;0.47;0.47;;;28.10;99.90;;;;;;5111517;28;20211;-83
2021/06/14 13:00:29;;;;;;;2.08;0.82;;;28.50;99.90;;;;;;5098225;28;20183;-84